Time,TemperatureF,DewpointF,PressureIn,WindDirection,WindDirectionDegrees,WindSpeedMPH,WindSpeedGustMPH,Humidity,HourlyPrecipIn,Conditions,Clouds,dailyrainin,SoftwareType,DateUTC
2013-07-30 00:33:00,56.1,51.0,30.68,SW,225,0.0,0.0,83,0.00,,,0.00,WUHU21623XXSP,2013-07-30 04:33:00,
2013-07-30 01:33:00,54.7,50.0,30.68,SW,225,0.0,0.0,84,0.00,,,0.00,WUHU21623XXSP,2013-07-30 05:33:00,
2013-07-30 02:33:00,53.8,49.4,30.69,SW,225,0.0,0.0,85,0.00,,,0.00,WUHU21623XXSP,2013-07-30 06:33:00,
2013-07-30 03:33:00,52.7,48.6,30.68,SW,225,0.0,0.0,86,0.00,,,0.00,WUHU21623XXSP,2013-07-30 07:33:00,
2013-07-30 04:33:00,51.6,47.5,30.69,SW,225,0.0,0.0,86,0.00,,,0.00,WUHU21623XXSP,2013-07-30 08:33:00,
2013-07-30 05:33:00,50.7,47.0,30.70,SW,225,0.0,0.0,87,0.00,,,0.00,WUHU21623XXSP,2013-07-30 09:33:00,
2013-07-30 06:33:00,49.8,46.1,30.71,SW,225,0.0,0.0,87,0.00,,,0.00,WUHU21623XXSP,2013-07-30 10:33:00,
2013-07-30 07:33:00,49.8,46.1,30.72,SW,225,0.0,0.0,87,0.00,,,0.00,WUHU21623XXSP,2013-07-30 11:33:00,
2013-07-30 08:33:00,52.9,49.4,30.73,SW,225,0.0,0.0,88,0.00,,,0.00,WUHU21623XXSP,2013-07-30 12:33:00,
2013-07-30 09:33:00,57.7,54.5,30.73,SW,225,0.0,0.0,89,0.00,,,0.00,WUHU21623XXSP,2013-07-30 13:33:00,
2013-07-30 10:02:00,59.5,55.7,30.73,North,0,0.0,0.0,87,0.00,,,0.00,WUHU21623XXSP,2013-07-30 14:02:00,
2013-07-30 10:03:00,59.5,55.7,30.73,North,0,0.0,0.0,87,0.00,,,0.00,WUHU21623XXSP,2013-07-30 14:03:00,
2013-07-30 10:08:00,59.7,55.9,30.73,North,0,0.0,0.0,87,0.00,,,0.00,WUHU21623XXSP,2013-07-30 14:08:00,
2013-07-30 10:13:00,60.1,55.9,30.72,NNW,337,0.0,0.0,86,0.00,,,0.00,WUHU21623XXSP,2013-07-30 14:13:00,
2013-07-30 10:18:00,60.6,56.3,30.72,NW,315,0.0,0.0,85,0.00,,,0.00,WUHU21623XXSP,2013-07-30 14:18:00,
2013-07-30 10:23:00,60.8,56.3,30.72,NW,315,0.0,0.0,84,0.00,,,0.00,WUHU21623XXSP,2013-07-30 14:23:00,
2013-07-30 10:28:00,61.5,56.6,30.72,NNW,337,0.0,0.0,84,0.00,,,0.00,WUHU21623XXSP,2013-07-30 14:28:00,
2013-07-30 10:33:00,61.9,56.6,30.73,North,0,0.0,0.0,83,0.00,,,0.00,WUHU21623XXSP,2013-07-30 14:33:00,
2013-07-30 10:38:00,62.2,56.8,30.72,North,0,0.0,0.0,82,0.00,,,0.00,WUHU21623XXSP,2013-07-30 14:38:00,
2013-07-30 10:43:00,62.8,56.8,30.73,North,0,0.0,0.0,81,0.00,,,0.00,WUHU21623XXSP,2013-07-30 14:43:00,
2013-07-30 10:48:00,63.1,56.8,30.71,NNW,337,0.0,0.0,80,0.00,,,0.00,WUHU21623XXSP,2013-07-30 14:48:00,
2013-07-30 10:53:00,63.7,56.7,30.72,SSE,157,0.0,0.0,78,0.00,,,0.00,WUHU21623XXSP,2013-07-30 14:53:00,
2013-07-30 10:58:00,64.0,57.0,30.72,SE,135,0.0,0.0,78,0.00,,,0.00,WUHU21623XXSP,2013-07-30 14:58:00,
2013-07-30 11:03:00,64.6,57.9,30.72,East,90,0.0,0.0,79,0.00,,,0.00,WUHU21623XXSP,2013-07-30 15:03:00,
2013-07-30 11:08:00,64.8,57.7,30.72,NNW,337,0.0,0.0,78,0.00,,,0.00,WUHU21623XXSP,2013-07-30 15:08:00,
2013-07-30 11:13:00,64.9,57.9,30.72,NNW,337,0.0,0.0,78,0.00,,,0.00,WUHU21623XXSP,2013-07-30 15:13:00,
2013-07-30 11:18:00,65.1,57.3,30.72,SSE,157,0.0,0.0,76,0.00,,,0.00,WUHU21623XXSP,2013-07-30 15:18:00,
2013-07-30 11:23:00,65.8,58.0,30.72,SSE,157,0.0,0.0,76,0.00,,,0.00,WUHU21623XXSP,2013-07-30 15:23:00,
2013-07-30 11:28:00,66.2,58.0,30.72,West,270,0.0,0.0,75,0.00,,,0.00,WUHU21623XXSP,2013-07-30 15:28:00,
2013-07-30 11:33:00,66.4,57.8,30.72,SW,225,0.0,0.0,74,0.00,,,0.00,WUHU21623XXSP,2013-07-30 15:33:00,
2013-07-30 11:38:00,66.7,57.8,30.71,SW,225,0.0,0.0,73,0.00,,,0.00,WUHU21623XXSP,2013-07-30 15:38:00,
2013-07-30 11:43:00,67.1,57.8,30.71,SW,225,0.0,0.0,72,0.00,,,0.00,WUHU21623XXSP,2013-07-30 15:43:00,
2013-07-30 11:48:00,67.6,58.7,30.72,SSW,202,0.0,0.0,73,0.00,,,0.00,WUHU21623XXSP,2013-07-30 15:48:00,
2013-07-30 11:53:00,68.4,59.2,30.71,SSW,202,0.0,0.0,73,0.00,,,0.00,WUHU21623XXSP,2013-07-30 15:53:00,
2013-07-30 11:59:00,68.5,59.2,30.71,NE,45,0.0,0.0,72,0.00,,,0.00,WUHU21623XXSP,2013-07-30 15:59:00,
2013-07-30 12:04:00,68.4,58.6,30.71,SE,135,0.0,0.0,71,0.00,,,0.00,WUHU21623XXSP,2013-07-30 16:04:00,
2013-07-30 12:09:00,68.4,58.6,30.71,SE,135,0.0,0.0,71,0.00,,,0.00,WUHU21623XXSP,2013-07-30 16:09:00,
2013-07-30 12:14:00,68.5,58.4,30.70,NNE,22,0.0,0.0,70,0.00,,,0.00,WUHU21623XXSP,2013-07-30 16:14:00,
2013-07-30 12:19:00,68.7,58.6,30.70,North,0,0.0,0.0,70,0.00,,,0.00,WUHU21623XXSP,2013-07-30 16:19:00,
2013-07-30 12:24:00,69.1,58.5,30.71,NNE,22,0.0,0.0,69,0.00,,,0.00,WUHU21623XXSP,2013-07-30 16:24:00,
2013-07-30 12:29:00,69.6,58.9,30.70,East,90,0.0,0.0,69,0.00,,,0.00,WUHU21623XXSP,2013-07-30 16:29:00,
2013-07-30 12:34:00,70.3,59.6,30.71,East,90,0.0,0.0,69,0.00,,,0.00,WUHU21623XXSP,2013-07-30 16:34:00,
2013-07-30 12:39:00,70.5,59.4,30.70,SE,135,0.0,0.0,68,0.00,,,0.00,WUHU21623XXSP,2013-07-30 16:39:00,
2013-07-30 12:44:00,70.9,59.8,30.70,SE,135,0.0,0.0,68,0.00,,,0.00,WUHU21623XXSP,2013-07-30 16:44:00,
2013-07-30 12:49:00,71.2,59.7,30.70,NNE,22,0.0,0.0,67,0.00,,,0.00,WUHU21623XXSP,2013-07-30 16:49:00,
2013-07-30 12:54:00,71.2,59.3,30.70,NNE,22,0.0,0.0,66,0.00,,,0.00,WUHU21623XXSP,2013-07-30 16:54:00,
2013-07-30 12:59:00,71.2,59.3,30.71,NW,315,0.0,0.0,66,0.00,,,0.00,WUHU21623XXSP,2013-07-30 16:59:00,
2013-07-30 13:04:00,71.4,59.4,30.70,NNE,22,0.0,0.0,66,0.00,,,0.00,WUHU21623XXSP,2013-07-30 17:04:00,
2013-07-30 13:09:00,71.8,59.8,30.70,NNE,22,0.0,0.0,66,0.00,,,0.00,WUHU21623XXSP,2013-07-30 17:09:00,
2013-07-30 13:14:00,71.8,59.3,30.70,West,270,0.0,0.0,65,0.00,,,0.00,WUHU21623XXSP,2013-07-30 17:14:00,
2013-07-30 13:19:00,72.1,59.7,30.70,NNE,22,0.0,0.0,65,0.00,,,0.00,WUHU21623XXSP,2013-07-30 17:19:00,
2013-07-30 13:24:00,72.3,59.9,30.69,East,90,0.0,0.0,65,0.00,,,0.00,WUHU21623XXSP,2013-07-30 17:24:00,
2013-07-30 13:29:00,72.9,59.9,30.69,SE,135,0.0,0.0,64,0.00,,,0.00,WUHU21623XXSP,2013-07-30 17:29:00,
2013-07-30 13:34:00,73.6,59.7,30.69,NW,315,0.0,0.0,62,0.00,,,0.00,WUHU21623XXSP,2013-07-30 17:34:00,
2013-07-30 13:39:00,73.9,60.1,30.69,NNE,22,0.0,0.0,62,0.00,,,0.00,WUHU21623XXSP,2013-07-30 17:39:00,
2013-07-30 13:44:00,73.8,59.9,30.69,NNE,22,0.0,0.0,62,0.00,,,0.00,WUHU21623XXSP,2013-07-30 17:44:00,
2013-07-30 13:49:00,73.0,58.7,30.69,West,270,0.0,0.0,61,0.00,,,0.00,WUHU21623XXSP,2013-07-30 17:49:00,
2013-07-30 13:54:00,73.0,59.2,30.69,West,270,0.0,0.0,62,0.00,,,0.00,WUHU21623XXSP,2013-07-30 17:54:00,
2013-07-30 13:59:00,73.2,59.8,30.69,NE,45,0.0,0.0,63,0.00,,,0.00,WUHU21623XXSP,2013-07-30 17:59:00,
2013-07-30 14:04:00,74.1,60.2,30.69,SE,135,0.0,0.0,62,0.00,,,0.00,WUHU21623XXSP,2013-07-30 18:04:00,
2013-07-30 14:09:00,74.7,59.9,30.69,North,0,0.0,0.0,60,0.00,,,0.00,WUHU21623XXSP,2013-07-30 18:09:00,
2013-07-30 14:14:00,75.4,60.6,30.68,North,0,0.0,0.0,60,0.00,,,0.00,WUHU21623XXSP,2013-07-30 18:14:00,
2013-07-30 14:19:00,75.6,59.8,30.68,North,0,0.0,0.0,58,0.00,,,0.00,WUHU21623XXSP,2013-07-30 18:19:00,
2013-07-30 14:24:00,75.7,59.9,30.68,West,270,0.0,0.0,58,0.00,,,0.00,WUHU21623XXSP,2013-07-30 18:24:00,
2013-07-30 14:29:00,76.1,60.2,30.67,NNW,337,0.0,0.0,58,0.00,,,0.00,WUHU21623XXSP,2013-07-30 18:29:00,
2013-07-30 14:34:00,76.6,60.2,30.67,North,0,0.0,0.0,57,0.00,,,0.00,WUHU21623XXSP,2013-07-30 18:34:00,
2013-07-30 14:39:00,77.2,60.7,30.68,NNE,22,0.0,0.0,57,0.00,,,0.00,WUHU21623XXSP,2013-07-30 18:39:00,
2013-07-30 14:44:00,77.5,61.6,30.67,West,270,0.0,0.0,58,0.00,,,0.00,WUHU21623XXSP,2013-07-30 18:44:00,
2013-07-30 14:49:00,78.1,61.1,30.67,WNW,292,0.0,0.0,56,0.00,,,0.00,WUHU21623XXSP,2013-07-30 18:49:00,
2013-07-30 14:54:00,78.1,60.6,30.66,ENE,67,0.0,0.0,55,0.00,,,0.00,WUHU21623XXSP,2013-07-30 18:54:00,
2013-07-30 14:59:00,78.3,61.3,30.67,NNE,22,0.0,0.0,56,0.00,,,0.00,WUHU21623XXSP,2013-07-30 18:59:00,
2013-07-30 15:04:00,78.6,60.5,30.67,NW,315,0.0,0.0,54,0.00,,,0.00,WUHU21623XXSP,2013-07-30 19:04:00,
2013-07-30 15:09:00,78.6,60.5,30.66,NNE,22,0.0,0.0,54,0.00,,,0.00,WUHU21623XXSP,2013-07-30 19:09:00,
2013-07-30 15:14:00,78.6,60.5,30.66,NNE,22,0.0,0.0,54,0.00,,,0.00,WUHU21623XXSP,2013-07-30 19:14:00,
2013-07-30 15:19:00,78.1,59.5,30.66,NNE,22,0.0,0.0,53,0.00,,,0.00,WUHU21623XXSP,2013-07-30 19:19:00,
2013-07-30 15:24:00,78.4,59.9,30.66,NE,45,0.0,0.0,53,0.00,,,0.00,WUHU21623XXSP,2013-07-30 19:24:00,
2013-07-30 15:29:00,78.6,60.5,30.66,NE,45,0.0,0.0,54,0.00,,,0.00,WUHU21623XXSP,2013-07-30 19:29:00,
2013-07-30 15:35:00,78.4,59.3,30.66,NNE,22,0.0,0.0,52,0.00,,,0.00,WUHU21623XXSP,2013-07-30 19:35:00,
2013-07-30 15:40:00,78.1,59.5,30.66,NNW,337,0.0,0.0,53,0.00,,,0.00,WUHU21623XXSP,2013-07-30 19:40:00,
2013-07-30 15:45:00,77.7,59.2,30.65,NNE,22,0.0,0.0,53,0.00,,,0.00,WUHU21623XXSP,2013-07-30 19:45:00,
2013-07-30 15:50:00,77.9,59.4,30.65,ENE,67,0.0,0.0,53,0.00,,,0.00,WUHU21623XXSP,2013-07-30 19:50:00,
2013-07-30 15:55:00,78.1,60.0,30.65,NNE,22,0.0,0.0,54,0.00,,,0.00,WUHU21623XXSP,2013-07-30 19:55:00,
2013-07-30 16:00:00,78.1,59.0,30.65,NW,315,0.0,0.0,52,0.00,,,0.00,WUHU21623XXSP,2013-07-30 20:00:00,
2013-07-30 16:05:00,77.7,58.7,30.65,WSW,247,0.0,0.0,52,0.00,,,0.00,WUHU21623XXSP,2013-07-30 20:05:00,
2013-07-30 16:10:00,77.7,59.7,30.65,WSW,247,0.0,0.0,54,0.00,,,0.00,WUHU21623XXSP,2013-07-30 20:10:00,
2013-07-30 16:15:00,78.1,59.0,30.65,SSW,202,0.0,0.0,52,0.00,,,0.00,WUHU21623XXSP,2013-07-30 20:15:00,
2013-07-30 16:20:00,78.6,60.0,30.64,SSW,202,0.0,0.0,53,0.00,,,0.00,WUHU21623XXSP,2013-07-30 20:20:00,
2013-07-30 16:25:00,78.8,59.7,30.64,NE,45,0.0,0.0,52,0.00,,,0.00,WUHU21623XXSP,2013-07-30 20:25:00,
2013-07-30 16:30:00,79.3,59.6,30.64,NNE,22,0.0,0.0,51,0.00,,,0.00,WUHU21623XXSP,2013-07-30 20:30:00,
2013-07-30 16:35:00,79.5,60.3,30.64,NNE,22,0.0,0.0,52,0.00,,,0.00,WUHU21623XXSP,2013-07-30 20:35:00,
2013-07-30 16:40:00,79.9,60.1,30.64,North,0,0.0,0.0,51,0.00,,,0.00,WUHU21623XXSP,2013-07-30 20:40:00,
2013-07-30 16:45:00,79.9,60.0,30.64,North,0,0.0,0.0,51,0.00,,,0.00,WUHU21623XXSP,2013-07-30 20:45:00,
2013-07-30 16:50:00,79.7,59.5,30.64,North,0,0.0,0.0,50,0.00,,,0.00,WUHU21623XXSP,2013-07-30 20:50:00,
2013-07-30 16:55:00,79.7,59.5,30.64,WNW,292,0.0,0.0,50,0.00,,,0.00,WUHU21623XXSP,2013-07-30 20:55:00,
2013-07-30 17:00:00,79.9,59.6,30.63,WNW,292,0.0,0.0,50,0.00,,,0.00,WUHU21623XXSP,2013-07-30 21:00:00,
2013-07-30 17:05:00,80.2,60.5,30.63,WNW,292,0.0,0.0,51,0.00,,,0.00,WUHU21623XXSP,2013-07-30 21:05:00,
2013-07-30 17:10:00,80.1,59.9,30.64,NNW,337,0.0,0.0,50,0.00,,,0.00,WUHU21623XXSP,2013-07-30 21:10:00,
2013-07-30 17:15:00,79.7,59.5,30.63,NNW,337,0.0,0.0,50,0.00,,,0.00,WUHU21623XXSP,2013-07-30 21:15:00,
2013-07-30 17:20:00,79.3,59.1,30.64,NNW,337,0.0,0.0,50,0.00,,,0.00,WUHU21623XXSP,2013-07-30 21:20:00,
2013-07-30 17:25:00,79.3,60.2,30.63,West,270,0.0,0.0,52,0.00,,,0.00,WUHU21623XXSP,2013-07-30 21:25:00,
2013-07-30 17:30:00,79.3,59.6,30.63,West,270,0.0,0.0,51,0.00,,,0.00,WUHU21623XXSP,2013-07-30 21:30:00,
2013-07-30 17:35:00,79.0,58.8,30.63,West,270,0.0,0.0,50,0.00,,,0.00,WUHU21623XXSP,2013-07-30 21:35:00,
2013-07-30 17:40:00,78.4,58.3,30.62,West,270,0.0,0.0,50,0.00,,,0.00,WUHU21623XXSP,2013-07-30 21:40:00,
2013-07-30 17:45:00,77.7,58.7,30.62,West,270,0.0,0.0,52,0.00,,,0.00,WUHU21623XXSP,2013-07-30 21:45:00,
2013-07-30 17:50:00,77.4,57.8,30.62,West,270,0.0,0.0,51,0.00,,,0.00,WUHU21623XXSP,2013-07-30 21:50:00,
2013-07-30 17:55:00,77.0,57.5,30.62,North,0,0.0,0.0,51,0.00,,,0.00,WUHU21623XXSP,2013-07-30 21:55:00,
2013-07-30 18:00:00,77.0,57.5,30.62,NNW,337,0.0,0.0,51,0.00,,,0.00,WUHU21623XXSP,2013-07-30 22:00:00,
2013-07-30 18:05:00,76.6,57.7,30.62,NNW,337,0.0,0.0,52,0.00,,,0.00,WUHU21623XXSP,2013-07-30 22:05:00,
2013-07-30 18:10:00,75.9,57.6,30.62,NNW,337,0.0,0.0,53,0.00,,,0.00,WUHU21623XXSP,2013-07-30 22:10:00,
2013-07-30 18:15:00,75.6,57.7,30.62,North,0,0.0,0.0,54,0.00,,,0.00,WUHU21623XXSP,2013-07-30 22:15:00,
2013-07-30 18:20:00,75.4,58.1,30.62,North,0,0.0,0.0,55,0.00,,,0.00,WUHU21623XXSP,2013-07-30 22:20:00,
2013-07-30 18:25:00,75.0,57.7,30.62,NNW,337,0.0,0.0,55,0.00,,,0.00,WUHU21623XXSP,2013-07-30 22:25:00,
2013-07-30 18:30:00,74.8,58.1,30.62,NNW,337,0.0,0.0,56,0.00,,,0.00,WUHU21623XXSP,2013-07-30 22:30:00,
2013-07-30 18:35:00,74.7,57.9,30.61,NNW,337,0.0,0.0,56,0.00,,,0.00,WUHU21623XXSP,2013-07-30 22:35:00,
2013-07-30 18:40:00,74.1,57.8,30.61,NNW,337,0.0,0.0,57,0.00,,,0.00,WUHU21623XXSP,2013-07-30 22:40:00,
2013-07-30 18:45:00,73.9,58.4,30.61,NNW,337,0.0,0.0,58,0.00,,,0.00,WUHU21623XXSP,2013-07-30 22:45:00,
2013-07-30 18:50:00,73.9,58.7,30.61,North,0,0.0,0.0,59,0.00,,,0.00,WUHU21623XXSP,2013-07-30 22:50:00,
2013-07-30 18:55:00,73.9,59.2,30.62,NE,45,0.0,0.0,60,0.00,,,0.00,WUHU21623XXSP,2013-07-30 22:55:00,
2013-07-30 19:00:00,73.8,59.0,30.62,NNE,22,0.0,0.0,60,0.00,,,0.00,WUHU21623XXSP,2013-07-30 23:00:00,
2013-07-30 19:05:00,73.6,59.3,30.61,West,270,0.0,0.0,61,0.00,,,0.00,WUHU21623XXSP,2013-07-30 23:05:00,
2013-07-30 19:10:00,73.2,58.9,30.62,West,270,0.0,0.0,61,0.00,,,0.00,WUHU21623XXSP,2013-07-30 23:10:00,
2013-07-30 19:15:00,72.9,59.0,30.62,West,270,0.0,0.0,62,0.00,,,0.00,WUHU21623XXSP,2013-07-30 23:15:00,
2013-07-30 19:20:00,72.7,59.3,30.62,WSW,247,0.0,0.0,63,0.00,,,0.00,WUHU21623XXSP,2013-07-30 23:20:00,
2013-07-30 19:25:00,72.5,59.1,30.62,WSW,247,0.0,0.0,63,0.00,,,0.00,WUHU21623XXSP,2013-07-30 23:25:00,
2013-07-30 19:30:00,72.1,58.8,30.62,WSW,247,0.0,0.0,63,0.00,,,0.00,WUHU21623XXSP,2013-07-30 23:30:00,
2013-07-30 19:35:00,72.0,58.6,30.62,WSW,247,0.0,0.0,63,0.00,,,0.00,WUHU21623XXSP,2013-07-30 23:35:00,
2013-07-30 19:40:00,71.4,58.6,30.62,WSW,247,0.0,0.0,64,0.00,,,0.00,WUHU21623XXSP,2013-07-30 23:40:00,
2013-07-30 19:45:00,71.2,58.4,30.62,WSW,247,0.0,0.0,64,0.00,,,0.00,WUHU21623XXSP,2013-07-30 23:45:00,
2013-07-30 19:50:00,70.9,58.5,30.62,WSW,247,0.0,0.0,65,0.00,,,0.00,WUHU21623XXSP,2013-07-30 23:50:00,
2013-07-30 19:51:00,70.9,58.5,30.62,WSW,247,0.0,0.0,65,0.00,,,0.00,WUHU21623XXSP,2013-07-30 23:51:00,
2013-07-30 19:56:00,70.7,58.7,30.61,WSW,247,0.0,0.0,66,0.00,,,0.00,WUHU21623XXSP,2013-07-30 23:56:00,
2013-07-30 20:01:00,70.5,58.6,30.61,WSW,247,0.0,0.0,66,0.00,,,0.00,WUHU21623XXSP,2013-07-31 00:01:00,
2013-07-30 20:06:00,70.5,59.0,30.61,WSW,247,0.0,0.0,67,0.00,,,0.00,WUHU21623XXSP,2013-07-31 00:06:00,
2013-07-30 20:11:00,70.3,58.8,30.61,WSW,247,0.0,0.0,67,0.00,,,0.00,WUHU21623XXSP,2013-07-31 00:11:00,
2013-07-30 20:16:00,70.3,58.8,30.61,WSW,247,0.0,0.0,67,0.00,,,0.00,WUHU21623XXSP,2013-07-31 00:16:00,
2013-07-30 20:21:00,70.2,59.1,30.61,WSW,247,0.0,0.0,68,0.00,,,0.00,WUHU21623XXSP,2013-07-31 00:21:00,
2013-07-30 20:26:00,70.0,58.9,30.61,WSW,247,0.0,0.0,68,0.00,,,0.00,WUHU21623XXSP,2013-07-31 00:26:00,
2013-07-30 20:31:00,69.6,58.5,30.61,WSW,247,0.0,0.0,68,0.00,,,0.00,WUHU21623XXSP,2013-07-31 00:31:00,
2013-07-30 20:36:00,69.4,58.4,30.61,WSW,247,0.0,0.0,68,0.00,,,0.00,WUHU21623XXSP,2013-07-31 00:36:00,
2013-07-30 20:41:00,69.1,58.5,30.61,WSW,247,0.0,0.0,69,0.00,,,0.00,WUHU21623XXSP,2013-07-31 00:41:00,
2013-07-30 20:46:00,68.9,58.3,30.61,WSW,247,0.0,0.0,69,0.00,,,0.00,WUHU21623XXSP,2013-07-31 00:46:00,
2013-07-30 20:51:00,68.5,58.4,30.61,WSW,247,0.0,0.0,70,0.00,,,0.00,WUHU21623XXSP,2013-07-31 00:51:00,
2013-07-30 20:56:00,68.2,58.1,30.61,WSW,247,0.0,0.0,70,0.00,,,0.00,WUHU21623XXSP,2013-07-31 00:56:00,
2013-07-30 21:01:00,67.8,57.7,30.61,WSW,247,0.0,0.0,70,0.00,,,0.00,WUHU21623XXSP,2013-07-31 01:01:00,
2013-07-30 21:06:00,67.6,57.6,30.61,WSW,247,0.0,0.0,70,0.00,,,0.00,WUHU21623XXSP,2013-07-31 01:06:00,
2013-07-30 21:12:00,67.3,57.6,30.61,WSW,247,0.0,0.0,71,0.00,,,0.00,WUHU21623XXSP,2013-07-31 01:12:00,
2013-07-30 21:17:00,67.1,57.4,30.61,WSW,247,0.0,0.0,71,0.00,,,0.00,WUHU21623XXSP,2013-07-31 01:17:00,
2013-07-30 21:22:00,66.9,57.6,30.62,WSW,247,0.0,0.0,72,0.00,,,0.00,WUHU21623XXSP,2013-07-31 01:22:00,
2013-07-30 21:27:00,66.7,57.4,30.61,WSW,247,0.0,0.0,72,0.00,,,0.00,WUHU21623XXSP,2013-07-31 01:27:00,
2013-07-30 21:32:00,66.6,57.2,30.61,WSW,247,0.0,0.0,72,0.00,,,0.00,WUHU21623XXSP,2013-07-31 01:32:00,
2013-07-30 21:37:00,66.4,57.1,30.61,WSW,247,0.0,0.0,72,0.00,,,0.00,WUHU21623XXSP,2013-07-31 01:37:00,
2013-07-30 21:42:00,66.2,57.3,30.61,WSW,247,0.0,0.0,73,0.00,,,0.00,WUHU21623XXSP,2013-07-31 01:42:00,
2013-07-30 21:47:00,66.0,57.1,30.62,WSW,247,0.0,0.0,73,0.00,,,0.00,WUHU21623XXSP,2013-07-31 01:47:00,
2013-07-30 21:52:00,66.0,57.5,30.63,WSW,247,0.0,0.0,74,0.00,,,0.00,WUHU21623XXSP,2013-07-31 01:52:00,
2013-07-30 21:57:00,66.0,57.5,30.62,WSW,247,0.0,0.0,74,0.00,,,0.00,WUHU21623XXSP,2013-07-31 01:57:00,
2013-07-30 22:02:00,65.8,57.3,30.63,WSW,247,0.0,0.0,74,0.00,,,0.00,WUHU21623XXSP,2013-07-31 02:02:00,
2013-07-30 22:07:00,65.8,57.3,30.62,WSW,247,0.0,0.0,74,0.00,,,0.00,WUHU21623XXSP,2013-07-31 02:07:00,
2013-07-30 22:12:00,65.5,56.9,30.63,WSW,247,0.0,0.0,74,0.00,,,0.00,WUHU21623XXSP,2013-07-31 02:12:00,
2013-07-30 22:17:00,65.5,56.9,30.63,WSW,247,0.0,0.0,74,0.00,,,0.00,WUHU21623XXSP,2013-07-31 02:17:00,
2013-07-30 22:22:00,65.5,57.3,30.62,WSW,247,0.0,0.0,75,0.00,,,0.00,WUHU21623XXSP,2013-07-31 02:22:00,
2013-07-30 22:27:00,65.3,57.1,30.63,WSW,247,0.0,0.0,75,0.00,,,0.00,WUHU21623XXSP,2013-07-31 02:27:00,
2013-07-30 22:32:00,65.1,57.0,30.62,WSW,247,0.0,0.0,75,0.00,,,0.00,WUHU21623XXSP,2013-07-31 02:32:00,
2013-07-30 22:37:00,65.1,57.0,30.63,WSW,247,0.0,0.0,75,0.00,,,0.00,WUHU21623XXSP,2013-07-31 02:37:00,
2013-07-30 22:42:00,65.1,57.3,30.62,WSW,247,0.0,0.0,76,0.00,,,0.00,WUHU21623XXSP,2013-07-31 02:42:00,
2013-07-30 22:47:00,64.9,57.2,30.63,WSW,247,0.0,0.0,76,0.00,,,0.00,WUHU21623XXSP,2013-07-31 02:47:00,
2013-07-30 22:52:00,64.8,57.0,30.63,WSW,247,0.0,0.0,76,0.00,,,0.00,WUHU21623XXSP,2013-07-31 02:52:00,
2013-07-30 22:57:00,64.6,56.8,30.63,WSW,247,0.0,0.0,76,0.00,,,0.00,WUHU21623XXSP,2013-07-31 02:57:00,
2013-07-30 23:02:00,64.6,56.8,30.63,WSW,247,0.0,0.0,76,0.00,,,0.00,WUHU21623XXSP,2013-07-31 03:02:00,
2013-07-30 23:07:00,64.2,56.5,30.63,WSW,247,0.0,0.0,76,0.00,,,0.00,WUHU21623XXSP,2013-07-31 03:07:00,
2013-07-30 23:12:00,64.2,56.8,30.62,WSW,247,0.0,0.0,77,0.00,,,0.00,WUHU21623XXSP,2013-07-31 03:12:00,
2013-07-30 23:13:00,64.2,56.8,30.62,WSW,247,0.0,0.0,77,0.00,,,0.00,WUHU21623XXSP,2013-07-31 03:13:00,
2013-07-30 23:18:00,64.0,56.7,30.62,WSW,247,0.0,0.0,77,0.00,,,0.00,WUHU21623XXSP,2013-07-31 03:18:00,
2013-07-30 23:23:00,63.9,56.8,30.63,WSW,247,0.0,0.0,78,0.00,,,0.00,WUHU21623XXSP,2013-07-31 03:23:00,
2013-07-30 23:28:00,63.7,56.7,30.63,WSW,247,0.0,0.0,78,0.00,,,0.00,WUHU21623XXSP,2013-07-31 03:28:00,
2013-07-30 23:33:00,63.7,56.7,30.63,WSW,247,0.0,0.0,78,0.00,,,0.00,WUHU21623XXSP,2013-07-31 03:33:00,
2013-07-30 23:38:00,63.5,56.5,30.62,WSW,247,0.0,0.0,78,0.00,,,0.00,WUHU21623XXSP,2013-07-31 03:38:00,
2013-07-30 23:43:00,63.3,56.3,30.62,WSW,247,0.0,0.0,78,0.00,,,0.00,WUHU21623XXSP,2013-07-31 03:43:00,
2013-07-30 23:48:00,63.1,56.5,30.62,West,270,0.0,0.0,79,0.00,,,0.00,WUHU21623XXSP,2013-07-31 03:48:00,
2013-07-30 23:53:00,63.1,56.5,30.62,West,270,0.0,0.0,79,0.00,,,0.00,WUHU21623XXSP,2013-07-31 03:53:00,
2013-07-30 23:58:00,63.1,56.5,30.62,West,270,0.0,0.0,79,0.00,,,0.00,WUHU21623XXSP,2013-07-31 03:58:00,